createdAt,value
2018-02-16T00:00:24.809Z,276.50
2018-02-16T00:01:24.827Z,186.60
2018-02-16T00:02:24.839Z,174.70
2018-02-16T00:03:24.855Z,206.80
2018-02-16T00:04:24.879Z,193.00
2018-02-16T00:05:24.897Z,229.40
2018-02-16T00:06:24.908Z,170.00
2018-02-16T00:07:24.926Z,143.70
2018-02-16T00:08:24.950Z,115.20
2018-02-16T00:09:24.966Z,146.60
2018-02-16T00:10:24.979Z,150.00
2018-02-16T00:11:24.996Z,130.90
2018-02-16T00:12:25.020Z,145.10
2018-02-16T00:13:25.039Z,136.40
2018-02-16T00:14:25.049Z,124.60
2018-02-16T00:15:25.072Z,181.40
2018-02-16T00:16:25.083Z,123.20
2018-02-16T00:17:25.107Z,94.20
2018-02-16T00:18:25.117Z,157.70
2018-02-16T00:19:25.141Z,258.80
2018-02-16T00:20:25.153Z,90.80
2018-02-16T00:21:25.176Z,108.70
2018-02-16T00:22:25.188Z,164.90
2018-02-16T00:23:25.211Z,132.70
2018-02-16T00:24:25.223Z,177.60
2018-02-16T00:25:25.244Z,109.10
2018-02-16T00:26:25.256Z,144.70
2018-02-16T00:27:25.283Z,153.00
2018-02-16T00:28:25.293Z,147.40
2018-02-16T00:29:25.314Z,112.90
2018-02-16T00:30:25.326Z,163.30
2018-02-16T00:31:25.343Z,141.30
2018-02-16T00:32:25.367Z,133.50
2018-02-16T00:33:25.379Z,103.10
2018-02-16T00:34:25.400Z,168.60
2018-02-16T00:35:25.412Z,130.00
2018-02-16T00:36:25.435Z,101.20
2018-02-16T00:37:25.445Z,226.90
2018-02-16T00:38:25.469Z,137.40
2018-02-16T00:39:25.480Z,182.20
2018-02-16T00:40:25.504Z,113.30
2018-02-16T00:41:25.514Z,345.60
2018-02-16T00:42:25.537Z,159.90
2018-02-16T00:43:25.551Z,206.20
2018-02-16T00:44:25.572Z,107.60
2018-02-16T00:45:25.584Z,154.40
2018-02-16T00:46:25.606Z,165.80
2018-02-16T00:47:25.618Z,98.90
2018-02-16T00:48:25.640Z,341.80
2018-02-16T00:49:25.653Z,345.50
2018-02-16T00:50:25.675Z,136.20
2018-02-16T00:51:25.686Z,133.50
2018-02-16T00:52:25.702Z,265.80
2018-02-16T00:53:25.725Z,97.90
2018-02-16T00:54:25.742Z,195.20
2018-02-16T00:55:25.754Z,123.60
2018-02-16T00:56:25.777Z,164.10
2018-02-16T00:57:25.792Z,112.50
2018-02-16T00:58:25.811Z,123.30
2018-02-16T00:59:25.828Z,135.30
2018-02-16T01:00:25.845Z,86.30
2018-02-16T01:01:25.857Z,119.40
2018-02-16T01:02:25.879Z,128.60
2018-02-16T01:03:25.896Z,145.10
2018-02-16T01:04:25.908Z,95.70
2018-02-16T01:05:25.930Z,85.50
2018-02-16T01:06:25.942Z,103.90
2018-02-16T01:07:25.963Z,89.80
2018-02-16T01:08:25.976Z,82.20
2018-02-16T01:09:25.997Z,124.40
2018-02-16T01:10:26.010Z,128.60
2018-02-16T01:11:26.033Z,99.90
2018-02-16T01:12:26.045Z,135.60
2018-02-16T01:13:26.064Z,101.60
2018-02-16T01:14:26.084Z,216.40
2018-02-16T01:15:26.096Z,71.40
2018-02-16T01:16:26.114Z,87.80
2018-02-16T01:17:26.129Z,85.40
2018-02-16T01:18:26.147Z,105.20
2018-02-16T01:19:26.174Z,103.80
2018-02-16T01:20:26.182Z,58.50
2018-02-16T01:21:26.199Z,57.90
2018-02-16T01:22:26.220Z,61.40
2018-02-16T01:23:26.238Z,53.20
2018-02-16T01:24:26.250Z,56.70
2018-02-16T01:25:26.266Z,71.20
2018-02-16T01:26:26.290Z,54.20
2018-02-16T01:27:26.302Z,61.00
2018-02-16T01:28:26.319Z,51.80
2018-02-16T01:29:26.340Z,65.90
2018-02-16T01:30:26.355Z,63.50
2018-02-16T01:31:26.369Z,75.80
2018-02-16T01:32:26.393Z,71.80
2018-02-16T01:33:26.409Z,66.40
2018-02-16T01:34:26.425Z,75.80
2018-02-16T01:35:26.438Z,58.10
2018-02-16T01:36:26.460Z,82.60
2018-02-16T01:37:26.480Z,72.40
2018-02-16T01:38:26.494Z,66.00
2018-02-16T01:39:26.506Z,75.70
2018-02-16T01:40:26.531Z,58.60
2018-02-16T01:41:26.539Z,67.00
2018-02-16T01:42:26.563Z,73.60
2018-02-16T01:43:26.574Z,56.10
2018-02-16T01:44:26.591Z,48.50
2018-02-16T01:45:26.607Z,56.60
2018-02-16T01:46:26.631Z,58.90
2018-02-16T01:47:26.648Z,50.50
2018-02-16T01:48:26.659Z,59.90
2018-02-16T01:49:26.676Z,51.10
2018-02-16T01:50:26.698Z,50.00
2018-02-16T01:51:26.716Z,55.30
2018-02-16T01:52:26.732Z,51.10
2018-02-16T01:53:26.749Z,53.50
2018-02-16T01:54:26.764Z,43.90
2018-02-16T01:55:26.783Z,59.00
2018-02-16T01:56:26.794Z,47.60
2018-02-16T01:57:26.817Z,55.10
2018-02-16T01:58:26.828Z,52.90
2018-02-16T01:59:26.846Z,59.70
2018-02-16T02:00:26.862Z,44.10
2018-02-16T02:01:26.883Z,53.00
2018-02-16T02:02:26.894Z,48.20
2018-02-16T02:03:26.918Z,46.80
2018-02-16T02:04:26.932Z,56.50
2018-02-16T02:05:26.947Z,53.20
2018-02-16T02:06:26.962Z,47.10
2018-02-16T02:07:26.990Z,49.70
2018-02-16T02:08:26.999Z,61.60
2018-02-16T02:09:27.013Z,60.40
2018-02-16T02:10:27.036Z,56.70
2018-02-16T02:11:27.054Z,56.00
2018-02-16T02:12:27.065Z,50.90
2018-02-16T02:13:27.081Z,54.70
2018-02-16T02:14:27.104Z,56.50
2018-02-16T02:15:27.120Z,67.10
2018-02-16T02:16:27.138Z,54.40
2018-02-16T02:17:27.148Z,59.30
2018-02-16T02:18:27.171Z,55.10
2018-02-16T02:19:27.182Z,56.90
2018-02-16T02:20:27.204Z,55.70
2018-02-16T02:21:27.221Z,62.80
2018-02-16T02:22:27.238Z,64.10
2018-02-16T02:23:27.255Z,56.60
2018-02-16T02:24:27.266Z,54.30
2018-02-16T02:25:27.283Z,59.20
2018-02-16T02:26:27.305Z,58.70
2018-02-16T02:27:27.322Z,55.40
2018-02-16T02:28:27.334Z,64.40
2018-02-16T02:29:27.350Z,61.80
2018-02-16T02:30:27.372Z,55.10
2018-02-16T02:31:27.384Z,59.20
2018-02-16T02:32:27.401Z,61.60
2018-02-16T02:33:27.421Z,57.70
2018-02-16T02:34:27.439Z,59.10
2018-02-16T02:35:27.456Z,60.30
2018-02-16T02:36:27.467Z,49.40
2018-02-16T02:37:27.489Z,53.70
2018-02-16T02:38:27.501Z,49.00
2018-02-16T02:39:27.520Z,54.30
2018-02-16T02:40:27.538Z,59.60
2018-02-16T02:41:27.553Z,51.90
2018-02-16T02:42:27.571Z,56.80
2018-02-16T02:43:27.584Z,51.60
2018-02-16T02:44:27.606Z,58.80
2018-02-16T02:45:27.617Z,52.50
2018-02-16T02:46:27.640Z,52.50
2018-02-16T02:47:27.655Z,57.80
2018-02-16T02:48:27.667Z,53.10
2018-02-16T02:49:27.682Z,49.70
2018-02-16T02:50:27.700Z,67.00
2018-02-16T02:51:27.721Z,59.80
2018-02-16T02:52:27.739Z,55.30
2018-02-16T02:53:27.750Z,58.40
2018-02-16T02:54:27.772Z,52.70
2018-02-16T02:55:27.796Z,52.40
2018-02-16T02:56:27.801Z,54.80
2018-02-16T02:57:27.823Z,65.90
2018-02-16T02:58:27.833Z,55.60
2018-02-16T02:59:27.856Z,49.20
2018-02-16T03:00:27.868Z,59.20
2018-02-16T03:01:27.889Z,56.90
2018-02-16T03:02:27.902Z,59.10
2018-02-16T03:03:27.923Z,56.70
2018-02-16T03:04:27.936Z,54.40
2018-02-16T03:05:27.951Z,54.10
2018-02-16T03:06:27.973Z,54.90
2018-02-16T03:07:27.989Z,50.70
2018-02-16T03:08:28.001Z,58.60
2018-02-16T03:09:28.023Z,57.70
2018-02-16T03:10:28.035Z,56.80
2018-02-16T03:11:28.096Z,50.10
2018-02-16T03:12:28.074Z,55.00
2018-02-16T03:13:28.090Z,53.70
2018-02-16T03:14:28.101Z,58.70
2018-02-16T03:15:28.118Z,53.10
2018-02-16T03:16:28.139Z,52.80
2018-02-16T03:17:28.156Z,56.80
2018-02-16T03:18:28.169Z,56.10
2018-02-16T03:19:28.184Z,52.30
2018-02-16T03:20:28.207Z,56.30
2018-02-16T03:21:28.217Z,53.00
2018-02-16T03:22:28.240Z,56.40
2018-02-16T03:23:28.252Z,55.60
2018-02-16T03:24:28.274Z,49.40
2018-02-16T03:25:28.292Z,54.50
2018-02-16T03:26:28.301Z,51.10
2018-02-16T03:27:28.317Z,55.80
2018-02-16T03:28:28.340Z,50.80
2018-02-16T03:29:28.356Z,53.90
2018-02-16T03:30:28.368Z,50.80
2018-02-16T03:31:28.385Z,48.10
2018-02-16T03:32:28.407Z,47.10
2018-02-16T03:33:28.423Z,45.30
2018-02-16T03:34:28.433Z,46.80
2018-02-16T03:35:28.451Z,54.40
2018-02-16T03:36:28.472Z,54.50
2018-02-16T03:37:28.484Z,47.60
2018-02-16T03:38:28.506Z,48.80
2018-02-16T03:39:28.518Z,46.10
2018-02-16T03:40:28.540Z,55.90
2018-02-16T03:41:28.555Z,48.10
2018-02-16T03:42:28.568Z,46.30
2018-02-16T03:43:28.587Z,45.80
2018-02-16T03:44:28.607Z,50.50
2018-02-16T03:45:28.618Z,48.50
2018-02-16T03:46:28.640Z,44.70
2018-02-16T03:47:28.649Z,45.90
2018-02-16T03:48:28.673Z,44.00
2018-02-16T03:49:28.684Z,43.70
2018-02-16T03:50:28.705Z,43.60
2018-02-16T03:51:28.716Z,45.60
2018-02-16T03:52:28.742Z,43.10
2018-02-16T03:53:28.755Z,47.40
2018-02-16T03:54:28.766Z,47.10
2018-02-16T03:55:28.784Z,51.10
2018-02-16T03:56:28.806Z,43.30
2018-02-16T03:57:28.817Z,47.60
2018-02-16T03:58:28.840Z,44.90
2018-02-16T03:59:28.855Z,41.80
2018-02-16T04:00:28.867Z,44.80
2018-02-16T04:01:28.891Z,45.00
2018-02-16T04:02:28.899Z,43.50
2018-02-16T04:03:28.920Z,42.00
2018-02-16T04:04:28.933Z,41.10
2018-02-16T04:05:28.954Z,48.80
2018-02-16T04:06:28.966Z,46.20
2018-02-16T04:07:28.982Z,42.00
2018-02-16T04:08:29.004Z,50.00
2018-02-16T04:09:29.016Z,44.30
2018-02-16T04:10:29.037Z,47.30
2018-02-16T04:11:29.051Z,44.80
2018-02-16T04:12:29.070Z,42.20
2018-02-16T04:13:29.080Z,43.80
2018-02-16T04:14:29.104Z,44.60
2018-02-16T04:15:29.114Z,48.10
2018-02-16T04:16:29.137Z,46.90
2018-02-16T04:17:29.153Z,42.20
2018-02-16T04:18:29.166Z,40.80
2018-02-16T04:19:29.180Z,43.90
2018-02-16T04:20:29.204Z,45.50
2018-02-16T04:21:29.218Z,47.00
2018-02-16T04:22:29.230Z,46.60
2018-02-16T04:23:29.253Z,41.50
2018-02-16T04:24:29.263Z,41.90
2018-02-16T04:25:29.286Z,49.30
2018-02-16T04:26:29.297Z,44.80
2018-02-16T04:27:29.319Z,49.40
2018-02-16T04:28:29.330Z,43.80
2018-02-16T04:29:29.352Z,43.40
2018-02-16T04:30:29.362Z,42.60
2018-02-16T04:31:29.381Z,47.70
2018-02-16T04:32:29.401Z,38.80
2018-02-16T04:33:29.418Z,41.70
2018-02-16T04:34:29.428Z,48.20
2018-02-16T04:35:29.446Z,46.00
2018-02-16T04:36:29.467Z,43.00
2018-02-16T04:37:29.484Z,49.00
2018-02-16T04:38:29.495Z,44.20
2018-02-16T04:39:29.518Z,46.80
2018-02-16T04:40:29.528Z,45.20
2018-02-16T04:41:29.544Z,45.70
2018-02-16T04:42:29.566Z,49.30
2018-02-16T04:43:29.622Z,52.90
2018-02-16T04:44:29.595Z,47.00
2018-02-16T04:45:29.611Z,45.80
2018-02-16T04:46:29.635Z,44.00
2018-02-16T04:47:29.645Z,45.20
2018-02-16T04:48:29.666Z,41.80
2018-02-16T04:49:29.678Z,39.90
2018-02-16T04:50:29.699Z,42.40
2018-02-16T04:51:29.712Z,41.80
2018-02-16T04:52:29.733Z,45.00
2018-02-16T04:53:29.743Z,44.90
2018-02-16T04:54:29.765Z,39.80
2018-02-16T04:55:29.777Z,41.10
2018-02-16T04:56:29.798Z,44.20
2018-02-16T04:57:29.814Z,40.10
2018-02-16T04:58:29.826Z,47.90
2018-02-16T04:59:29.844Z,49.70
2018-02-16T05:00:29.866Z,44.10
2018-02-16T05:01:29.882Z,47.60
2018-02-16T05:02:29.892Z,45.30
2018-02-16T05:03:29.909Z,40.50
2018-02-16T05:04:29.931Z,43.20
2018-02-16T05:05:29.943Z,43.20
2018-02-16T05:06:29.965Z,44.70
2018-02-16T05:07:29.975Z,46.00
2018-02-16T05:08:29.992Z,44.10
2018-02-16T05:09:30.015Z,46.30
2018-02-16T05:10:30.030Z,48.50
2018-02-16T05:11:30.047Z,49.30
2018-02-16T05:12:30.089Z,44.50
2018-02-16T05:13:30.074Z,42.20
2018-02-16T05:14:30.096Z,50.10
2018-02-16T05:15:30.114Z,48.00
2018-02-16T05:16:30.125Z,42.30
2018-02-16T05:17:30.140Z,43.50
2018-02-16T05:18:30.163Z,49.70
2018-02-16T05:19:30.180Z,44.40
2018-02-16T05:20:30.190Z,50.60
2018-02-16T05:21:30.212Z,43.60
2018-02-16T05:22:30.224Z,44.70
2018-02-16T05:23:30.245Z,45.30
2018-02-16T05:24:30.262Z,42.10
2018-02-16T05:25:30.272Z,48.10
2018-02-16T05:26:30.289Z,43.40
2018-02-16T05:27:30.307Z,47.50
2018-02-16T05:28:30.329Z,41.00
2018-02-16T05:29:30.338Z,44.30
2018-02-16T05:30:30.361Z,44.70
2018-02-16T05:31:30.372Z,43.00
2018-02-16T05:32:30.394Z,45.70
2018-02-16T05:33:30.404Z,45.00
2018-02-16T05:34:30.426Z,50.30
2018-02-16T05:35:30.439Z,41.30
2018-02-16T05:36:30.461Z,43.80
2018-02-16T05:37:30.476Z,42.30
2018-02-16T05:38:30.488Z,43.30
2018-02-16T05:39:30.504Z,40.70
2018-02-16T05:40:30.521Z,49.50
2018-02-16T05:41:30.535Z,45.60
2018-02-16T05:42:30.558Z,42.10
2018-02-16T05:43:30.575Z,43.10
2018-02-16T05:44:30.586Z,41.30
2018-02-16T05:45:30.608Z,45.10
2018-02-16T05:46:30.618Z,41.80
2018-02-16T05:47:30.641Z,36.60
2018-02-16T05:48:30.652Z,39.70
2018-02-16T05:49:30.673Z,39.40
2018-02-16T05:50:30.683Z,46.10
2018-02-16T05:51:30.708Z,39.10
2018-02-16T05:52:30.718Z,42.20
2018-02-16T05:53:30.740Z,38.70
2018-02-16T05:54:30.758Z,43.50
2018-02-16T05:55:30.773Z,46.70
2018-02-16T05:56:30.789Z,45.30
2018-02-16T05:57:30.805Z,42.20
2018-02-16T05:58:30.815Z,42.40
2018-02-16T05:59:30.837Z,44.60
2018-02-16T06:00:30.849Z,43.40
2018-02-16T06:01:30.864Z,40.50
2018-02-16T06:02:30.888Z,43.90
2018-02-16T06:03:30.903Z,42.00
2018-02-16T06:04:30.916Z,39.00
2018-02-16T06:05:30.930Z,43.10
2018-02-16T06:06:30.953Z,44.40
2018-02-16T06:07:30.969Z,44.00
2018-02-16T06:08:30.985Z,41.10
2018-02-16T06:09:31.000Z,43.10
2018-02-16T06:10:31.011Z,49.00
2018-02-16T06:11:31.029Z,45.40
2018-02-16T06:12:31.049Z,47.00
2018-02-16T06:13:31.061Z,46.80
2018-02-16T06:14:31.076Z,37.70
2018-02-16T06:15:31.099Z,45.40
2018-02-16T06:16:31.112Z,48.90
2018-02-16T06:17:31.125Z,43.00
2018-02-16T06:18:31.148Z,46.60
2018-02-16T06:19:31.165Z,44.50
2018-02-16T06:20:31.174Z,44.30
2018-02-16T06:21:31.192Z,39.10
2018-02-16T06:22:31.213Z,42.50
2018-02-16T06:23:31.224Z,46.70
2018-02-16T06:24:31.246Z,43.30
2018-02-16T06:25:31.262Z,41.90
2018-02-16T06:26:31.272Z,47.80
2018-02-16T06:27:31.289Z,44.80
2018-02-16T06:28:31.306Z,45.30
2018-02-16T06:29:31.321Z,44.60
2018-02-16T06:30:31.338Z,40.40
2018-02-16T06:31:31.354Z,44.00
2018-02-16T06:32:31.377Z,41.30
2018-02-16T06:33:31.387Z,43.30
2018-02-16T06:34:31.409Z,43.80
2018-02-16T06:35:31.420Z,41.60
2018-02-16T06:36:31.443Z,44.70
2018-02-16T06:37:31.453Z,42.90
2018-02-16T06:38:31.475Z,42.40
2018-02-16T06:39:31.491Z,43.50
2018-02-16T06:40:31.502Z,40.40
2018-02-16T06:41:31.524Z,38.00
2018-02-16T06:42:31.541Z,39.60
2018-02-16T06:43:31.556Z,44.00
2018-02-16T06:44:31.574Z,42.50
2018-02-16T06:45:31.616Z,42.10
2018-02-16T06:46:31.600Z,40.50
2018-02-16T06:47:31.623Z,42.70
2018-02-16T06:48:31.633Z,42.20
2018-02-16T06:49:31.648Z,44.30
2018-02-16T06:50:31.671Z,39.70
2018-02-16T06:51:31.687Z,40.50
2018-02-16T06:52:31.699Z,39.40
2018-02-16T06:53:31.722Z,43.70
2018-02-16T06:54:31.731Z,43.80
2018-02-16T06:55:31.752Z,40.40
2018-02-16T06:56:31.764Z,42.70
2018-02-16T06:57:31.779Z,43.30
2018-02-16T06:58:31.797Z,43.40
2018-02-16T06:59:31.820Z,42.50
2018-02-16T07:00:31.836Z,46.30
2018-02-16T07:01:31.845Z,46.30
2018-02-16T07:02:31.868Z,47.60
2018-02-16T07:03:31.884Z,48.50
2018-02-16T07:04:31.896Z,44.90
2018-02-16T07:05:31.916Z,48.50
2018-02-16T07:06:31.930Z,47.40
2018-02-16T07:07:31.949Z,46.30
2018-02-16T07:08:31.966Z,47.00
2018-02-16T07:09:31.977Z,45.30
2018-02-16T07:10:32.000Z,43.80
2018-02-16T07:11:32.016Z,45.10
2018-02-16T07:12:32.027Z,46.60
2018-02-16T07:13:32.043Z,43.00
2018-02-16T07:14:32.064Z,46.40
2018-02-16T07:15:32.080Z,44.20
2018-02-16T07:16:32.091Z,43.40
2018-02-16T07:17:32.110Z,40.00
2018-02-16T07:18:32.131Z,44.70
2018-02-16T07:19:32.141Z,49.70
2018-02-16T07:20:32.163Z,45.00
2018-02-16T07:21:32.180Z,43.70
2018-02-16T07:22:32.190Z,43.70
2018-02-16T07:23:32.212Z,39.40
2018-02-16T07:24:32.230Z,43.60
2018-02-16T07:25:32.246Z,41.30
2018-02-16T07:26:32.257Z,42.80
2018-02-16T07:27:32.275Z,41.60
2018-02-16T07:28:32.297Z,41.10
2018-02-16T07:29:32.312Z,43.50
2018-02-16T07:30:32.323Z,40.50
2018-02-16T07:31:32.340Z,38.70
2018-02-16T07:32:32.363Z,44.00
2018-02-16T07:33:32.380Z,40.30
2018-02-16T07:34:32.390Z,39.70
2018-02-16T07:35:32.407Z,44.90
2018-02-16T07:36:32.432Z,40.00
2018-02-16T07:37:32.439Z,38.00
2018-02-16T07:38:32.461Z,41.30
2018-02-16T07:39:32.473Z,39.00
2018-02-16T07:40:32.497Z,42.20
2018-02-16T07:41:32.509Z,38.90
2018-02-16T07:42:32.530Z,44.40
2018-02-16T07:43:32.540Z,41.20
2018-02-16T07:44:32.563Z,42.90
2018-02-16T07:45:32.574Z,38.80
2018-02-16T07:46:32.596Z,35.90
2018-02-16T07:47:32.608Z,43.20
2018-02-16T07:48:32.630Z,40.30
2018-02-16T07:49:32.640Z,35.90
2018-02-16T07:50:32.663Z,32.50
2018-02-16T07:51:32.683Z,35.30
2018-02-16T07:52:32.692Z,43.00
2018-02-16T07:53:32.713Z,43.70
2018-02-16T07:54:32.724Z,35.80
2018-02-16T07:55:32.788Z,40.00
2018-02-16T07:56:32.759Z,38.30
2018-02-16T07:57:32.780Z,38.30
2018-02-16T07:58:32.792Z,40.90
2018-02-16T07:59:32.815Z,36.90
2018-02-16T08:00:32.826Z,44.20
2018-02-16T08:01:32.848Z,41.20
2018-02-16T08:02:32.860Z,44.80
2018-02-16T08:03:32.883Z,35.60
2018-02-16T08:04:32.895Z,32.20
2018-02-16T08:05:32.918Z,34.20
2018-02-16T08:06:32.928Z,36.30
2018-02-16T08:07:32.944Z,34.50
2018-02-16T08:08:32.969Z,39.70
2018-02-16T08:09:32.984Z,40.70
2018-02-16T08:10:32.995Z,42.60
2018-02-16T08:11:33.013Z,42.90
2018-02-16T08:12:33.037Z,37.90
2018-02-16T08:13:33.051Z,42.60
2018-02-16T08:14:33.064Z,34.90
2018-02-16T08:15:33.081Z,31.70
2018-02-16T08:16:33.106Z,32.90
2018-02-16T08:17:33.120Z,37.50
2018-02-16T08:18:33.133Z,39.30
2018-02-16T08:19:33.149Z,40.10
2018-02-16T08:20:33.172Z,30.20
2018-02-16T08:21:33.190Z,33.70
2018-02-16T08:22:33.201Z,33.50
2018-02-16T08:23:33.220Z,30.10
2018-02-16T08:24:33.242Z,42.50
2018-02-16T08:25:33.254Z,33.00
2018-02-16T08:26:33.276Z,32.60
2018-02-16T08:27:33.288Z,32.60
2018-02-16T08:28:33.311Z,34.80
2018-02-16T08:29:33.329Z,27.10
2018-02-16T08:30:33.340Z,29.50
2018-02-16T08:31:33.361Z,28.50
2018-02-16T08:32:33.380Z,32.90
2018-02-16T08:33:33.392Z,32.20
2018-02-16T08:34:33.415Z,31.30
2018-02-16T08:35:33.427Z,26.80
2018-02-16T08:36:33.450Z,31.10
2018-02-16T08:37:33.462Z,30.10
2018-02-16T08:38:33.485Z,25.20
2018-02-16T08:39:33.497Z,26.30
2018-02-16T08:40:33.521Z,34.20
2018-02-16T08:41:33.537Z,29.30
2018-02-16T08:42:33.550Z,29.30
2018-02-16T08:43:33.569Z,28.20
2018-02-16T08:44:33.594Z,26.50
2018-02-16T08:45:33.603Z,29.90
2018-02-16T08:46:33.626Z,28.20
2018-02-16T08:47:33.645Z,26.50
2018-02-16T08:48:33.656Z,26.30
2018-02-16T08:49:33.681Z,30.50
2018-02-16T08:50:33.691Z,29.10
2018-02-16T08:51:33.716Z,26.90
2018-02-16T08:52:33.729Z,31.50
2018-02-16T08:53:33.754Z,30.20
2018-02-16T08:54:33.764Z,29.40
2018-02-16T08:55:33.787Z,26.90
2018-02-16T08:56:33.800Z,27.90
2018-02-16T08:57:33.816Z,27.90
2018-02-16T08:58:33.844Z,19.80
2018-02-16T08:59:33.859Z,23.90
2018-02-16T09:00:33.871Z,21.30
2018-02-16T09:01:33.897Z,23.70
2018-02-16T09:02:33.907Z,23.40
2018-02-16T09:03:33.926Z,26.50
2018-02-16T09:04:33.950Z,28.00
2018-02-16T09:05:33.966Z,19.00
2018-02-16T09:06:33.981Z,25.60
2018-02-16T09:07:33.998Z,24.20
2018-02-16T09:08:34.022Z,22.50
2018-02-16T09:09:34.041Z,22.10
2018-02-16T09:10:34.054Z,24.90
2018-02-16T09:11:34.074Z,21.80
2018-02-16T09:12:34.099Z,20.70
2018-02-16T09:13:34.112Z,22.80
2018-02-16T09:14:34.137Z,21.60
2018-02-16T09:15:34.153Z,21.80
2018-02-16T09:16:34.180Z,16.10
2018-02-16T09:17:34.201Z,18.90
2018-02-16T09:18:34.219Z,21.40
2018-02-16T09:19:34.242Z,22.00
2018-02-16T09:20:34.266Z,22.30
2018-02-16T09:21:34.280Z,24.40
2018-02-16T09:22:34.308Z,18.30
2018-02-16T09:23:34.326Z,20.00
2018-02-16T09:24:34.354Z,18.20
2018-02-16T09:25:34.376Z,17.50
2018-02-16T09:26:34.399Z,20.50
2018-02-16T09:27:34.421Z,18.80
2018-02-16T09:28:34.438Z,19.70
2018-02-16T09:29:34.461Z,19.50
2018-02-16T09:30:34.490Z,20.80
2018-02-16T09:31:34.513Z,23.00
2018-02-16T09:32:34.531Z,18.80
2018-02-16T09:33:34.559Z,18.90
2018-02-16T09:34:34.578Z,19.60
2018-02-16T09:35:34.606Z,21.80
2018-02-16T09:36:34.624Z,20.70
2018-02-16T09:37:34.653Z,20.70
2018-02-16T09:38:34.670Z,21.90
2018-02-16T09:39:34.699Z,20.30
2018-02-16T09:40:34.725Z,20.00
2018-02-16T09:41:34.741Z,20.90
2018-02-16T09:42:34.763Z,20.60
2018-02-16T09:43:34.792Z,18.60
2018-02-16T09:44:34.812Z,21.50
2018-02-16T09:45:34.839Z,16.90
2018-02-16T09:46:34.858Z,20.10
2018-02-16T09:47:34.885Z,22.20
2018-02-16T09:48:34.904Z,18.00
2018-02-16T09:49:34.925Z,19.40
2018-02-16T09:50:34.955Z,18.40
2018-02-16T09:51:34.977Z,22.40
2018-02-16T09:52:34.997Z,17.60
2018-02-16T09:53:35.017Z,18.70
2018-02-16T09:54:35.042Z,19.70
2018-02-16T09:55:35.073Z,20.90
2018-02-16T09:56:35.093Z,20.90
2018-02-16T09:57:35.110Z,22.10
2018-02-16T09:58:35.139Z,18.60
2018-02-16T09:59:35.163Z,20.40
2018-02-16T10:00:35.181Z,24.50
2018-02-16T10:01:35.204Z,21.80
2018-02-16T10:02:35.233Z,20.30
2018-02-16T10:03:35.256Z,22.80
2018-02-16T10:04:35.276Z,20.30
2018-02-16T10:05:35.300Z,22.40
2018-02-16T10:06:35.332Z,19.90
2018-02-16T10:07:35.349Z,20.30
2018-02-16T10:08:35.378Z,19.50
2018-02-16T10:09:35.396Z,18.00
2018-02-16T10:10:35.422Z,17.20
2018-02-16T10:11:35.445Z,18.40
2018-02-16T10:12:35.471Z,21.00
2018-02-16T10:13:35.494Z,21.00
2018-02-16T10:14:35.527Z,19.70
2018-02-16T10:15:35.545Z,20.10
2018-02-16T10:16:35.574Z,20.80
2018-02-16T10:17:35.591Z,19.50
2018-02-16T10:18:35.621Z,22.20
2018-02-16T10:19:35.640Z,22.70
2018-02-16T10:20:35.669Z,24.40
2018-02-16T10:21:35.687Z,22.20
2018-02-16T10:22:35.719Z,21.30
2018-02-16T10:23:35.736Z,22.40
2018-02-16T10:24:35.767Z,22.10
2018-02-16T10:25:35.790Z,20.40
2018-02-16T10:26:35.809Z,22.30
2018-02-16T10:27:35.829Z,21.90
2018-02-16T10:28:35.853Z,20.50
2018-02-16T10:29:35.877Z,22.80
2018-02-16T10:30:35.901Z,21.60
2018-02-16T10:31:35.932Z,24.40
2018-02-16T10:32:35.946Z,21.70
2018-02-16T10:33:35.976Z,21.70
2018-02-16T10:34:35.993Z,19.30
2018-02-16T10:35:36.024Z,23.80
2018-02-16T10:36:36.040Z,22.90
2018-02-16T10:37:36.070Z,23.10
2018-02-16T10:38:36.087Z,19.10
2018-02-16T10:39:36.120Z,21.00
2018-02-16T10:40:36.136Z,16.10
2018-02-16T10:41:36.158Z,18.20
2018-02-16T10:42:36.190Z,17.80
2018-02-16T10:43:36.215Z,17.40
2018-02-16T10:44:36.239Z,20.90
2018-02-16T10:45:36.263Z,16.20
2018-02-16T10:46:36.291Z,15.70
2018-02-16T10:47:36.313Z,17.90
2018-02-16T10:48:36.332Z,18.60
2018-02-16T10:49:36.356Z,16.00
2018-02-16T10:50:36.388Z,18.00
2018-02-16T10:51:36.463Z,21.90
2018-02-16T10:52:36.432Z,19.20
2018-02-16T10:53:36.455Z,22.10
2018-02-16T10:54:36.485Z,20.00
2018-02-16T10:55:36.517Z,24.20
2018-02-16T10:56:36.537Z,20.60
2018-02-16T10:57:36.561Z,19.80
2018-02-16T10:58:36.587Z,21.00
2018-02-16T10:59:36.606Z,18.90
2018-02-16T11:00:36.629Z,19.20
2018-02-16T11:01:36.660Z,15.50
2018-02-16T11:02:36.683Z,20.20
2018-02-16T11:03:36.710Z,14.90
2018-02-16T11:04:36.731Z,15.10
2018-02-16T11:05:36.758Z,16.80
2018-02-16T11:06:36.783Z,18.00
2018-02-16T11:07:36.808Z,19.00
2018-02-16T11:08:36.829Z,14.70
2018-02-16T11:09:36.853Z,16.60
2018-02-16T11:10:36.881Z,16.10
2018-02-16T11:11:36.908Z,18.60
2018-02-16T11:12:36.926Z,19.20
2018-02-16T11:13:36.950Z,19.40
2018-02-16T11:14:36.974Z,16.90
2018-02-16T11:15:37.003Z,18.00
2018-02-16T11:16:37.028Z,17.10
2018-02-16T11:17:37.045Z,16.80
2018-02-16T11:18:37.077Z,20.00
2018-02-16T11:19:37.093Z,17.60
2018-02-16T11:20:37.124Z,15.40
2018-02-16T11:21:37.141Z,17.80
2018-02-16T11:22:37.169Z,15.70
2018-02-16T11:23:37.188Z,16.30
2018-02-16T11:24:37.221Z,14.70
2018-02-16T11:25:37.234Z,18.90
2018-02-16T11:26:37.267Z,15.90
2018-02-16T11:27:37.289Z,16.00
2018-02-16T11:28:37.307Z,17.10
2018-02-16T11:29:37.337Z,17.90
2018-02-16T11:30:37.356Z,16.10
2018-02-16T11:31:37.384Z,15.50
2018-02-16T11:32:37.408Z,20.30
2018-02-16T11:33:37.434Z,17.20
2018-02-16T11:34:37.451Z,17.60
2018-02-16T11:35:37.482Z,14.30
2018-02-16T11:36:37.501Z,18.50
2018-02-16T11:37:37.523Z,21.20
2018-02-16T11:38:37.552Z,21.20
2018-02-16T11:39:37.578Z,16.60
2018-02-16T11:40:37.594Z,15.20
2018-02-16T11:41:37.624Z,14.40
2018-02-16T11:42:37.640Z,13.40
2018-02-16T11:43:37.664Z,15.00
2018-02-16T11:44:37.693Z,17.50
2018-02-16T11:45:37.716Z,15.20
2018-02-16T11:46:37.734Z,14.30
2018-02-16T11:47:37.758Z,14.90
2018-02-16T11:48:37.787Z,13.20
2018-02-16T11:49:37.811Z,14.40
2018-02-16T11:50:37.832Z,15.00
2018-02-16T11:51:37.858Z,13.90
2018-02-16T11:52:37.885Z,14.20
2018-02-16T11:53:37.903Z,14.70
2018-02-16T11:54:37.934Z,15.90
2018-02-16T11:55:37.953Z,12.70
2018-02-16T11:56:37.983Z,13.20
2018-02-16T11:57:38.007Z,12.30
2018-02-16T11:58:38.028Z,14.90
2018-02-16T11:59:38.052Z,11.70
2018-02-16T12:00:38.082Z,12.70
2018-02-16T12:01:38.130Z,13.70
2018-02-16T12:02:38.127Z,14.20
2018-02-16T12:03:38.157Z,13.80
2018-02-16T12:04:38.185Z,16.50
2018-02-16T12:05:38.211Z,13.10
2018-02-16T12:06:38.276Z,13.60
2018-02-16T12:07:38.258Z,13.20
2018-02-16T12:08:38.291Z,11.20
2018-02-16T12:09:38.312Z,15.40
2018-02-16T12:10:38.341Z,14.10
2018-02-16T12:11:38.364Z,13.70
2018-02-16T12:12:38.397Z,11.20
2018-02-16T12:13:38.422Z,12.50
2018-02-16T12:14:38.445Z,16.80
2018-02-16T12:15:38.472Z,11.30
2018-02-16T12:16:38.504Z,16.70
2018-02-16T12:17:38.526Z,12.60
2018-02-16T12:18:38.557Z,13.10
2018-02-16T12:19:38.583Z,12.90
2018-02-16T12:20:38.614Z,12.40
2018-02-16T12:21:38.634Z,14.20
2018-02-16T12:22:38.668Z,14.70
2018-02-16T12:23:38.691Z,16.40
2018-02-16T12:24:38.724Z,12.90
2018-02-16T12:25:38.753Z,13.70
2018-02-16T12:26:38.777Z,14.00
2018-02-16T12:27:38.804Z,13.90
2018-02-16T12:28:38.838Z,11.90
2018-02-16T12:29:38.860Z,13.90
2018-02-16T12:30:38.894Z,13.00
2018-02-16T12:31:38.916Z,12.70
2018-02-16T12:32:38.951Z,14.20
2018-02-16T12:33:38.972Z,15.20
2018-02-16T12:34:39.008Z,13.60
2018-02-16T12:35:39.030Z,12.60
2018-02-16T12:36:39.064Z,10.50
2018-02-16T12:37:39.086Z,12.00
2018-02-16T12:38:39.120Z,11.80
2018-02-16T12:39:39.148Z,10.60
2018-02-16T12:40:39.171Z,13.10
2018-02-16T12:41:39.233Z,14.70
2018-02-16T12:42:39.225Z,13.80
2018-02-16T12:43:39.260Z,13.80
2018-02-16T12:44:39.281Z,14.90
2018-02-16T12:45:39.314Z,14.90
2018-02-16T12:46:39.335Z,11.30
2018-02-16T12:47:39.369Z,13.00
2018-02-16T12:48:39.390Z,10.70
2018-02-16T12:49:39.424Z,13.40
2018-02-16T12:50:39.445Z,12.50